Vidalia, GA (30475)

8:46 AM EDT on April 25, 2015 (GMT -0400)
Oxley Dr., VHS | | Change Station
CLOSE
Current Station
Personal Weather Station
Location: Vidalia, GA
Elevation: 279 ft
Nearby Weather Stations
Active Advisory: Flood Warning

Elev 279 ft 32.23 °N, 82.44 °W | Updated 3 seconds ago

Scattered Clouds
Scattered Clouds
62.2 °F
Feels Like 62.2 °F
N
1.1
Wind Variable Wind from WSW
Gusts 2.5 mph

Today
High -- | Low -- °F
--% Chance of Precip.
Yesterday
High -- | Low -- °F
Precip. -- in
6:49 AM 8:06 PM
Waxing Crescent, 45% visible
Pressure 29.89 in
Visibility 10.0 miles
Clouds Scattered Clouds 7000 ft
Scattered Clouds 12000 ft
Dew Point 60 °F
Humidity 93%
Rainfall 0.00 in
Snow Depth Not available.
UV 1.0 out of 12
Pollen 8.40 out of 12
Air Quality Not available.
Flu Activity Sporadic
METAR KVDI 251235Z AUTO 16003KT 10SM SCT070 SCT120 17/16 A2989 RMK AO2

More Conditions Fewer Conditions

Pressure 29.89 in
Visibility 10.0 miles
Clouds Scattered Clouds 7000 ft
Scattered Clouds 12000 ft
Dew Point 60 °F
Humidity 93%
Rainfall 0.00 in
Snow Depth Not available.
UV 1.0 out of 12
Pollen 8.40 out of 12
Air Quality Not available.
Flu Activity Sporadic
METAR KVDI 251235Z AUTO 16003KT 10SM SCT070 SCT120 17/16 A2989 RMK AO2

More Conditions Fewer Conditions

10-Day Weather Forecast

Almanac

Astronomy

Apr. 25, 2015 Rise Set
Actual Time
Civil Twilight
Nautical Twilight
Astronomical Twilight
Moon
Length of Visible Light
Length of Day
Tomorrow will be .
, % of the Moon is Illuminated

Today's Extremes

State Highs State Lows

Community

WunderPhotos

Upload Photos

1,816,649 photos uploaded!

WunderBlogs® & News

Nearby

Air Quality

  Air Quality AQ Index Pollutant
Not available.

Snow Depth

Station Depth Elevation

Earthquake Activity

City Distance Mag. Time & Date
Minimum magnitude displayed is 2.5.

Coastal Water Temperatures

Place Temperature

Stations

Nearby Weather Stations

Station Location Temp. Windchill Dew Point Humidity Wind Precip. Elev Updated Type
                   
Flood Warning
Statement as of 10:07 PM EDT on April 24, 2015

The Flood Warning continues for
the Altamaha river at Baxley.
* Until further notice... or until the warning is cancelled.
* At 9:45 PM Friday the stage was 74.6 feet.
* Minor flooding is occurring and minor flooding is forecast.
* Flood stage is 74.5 feet.
* Forecast... the river will continue rising to near 75.8 feet by
Wednesday early afternoon. Additional rises may be possible
thereafter.
* Impact... at 74.5 feet... minor flooding of Timber and agricultural
land can be expected.





               Fld observed 7am EST / 8am EDT forecast
location stg stg day time Sat sun Mon Tue Wed

Altamaha
Baxley 74 74.6 Fri 10 PM 74.6 74.9 75.3 75.6 75.7



Lat... Lon 3194 8243 3188 8222 3176 8199 3183 8195 3193 8213 3200 8243